sensor_id;sensor_type;location;lat;lon;timestamp;P1;durP1;ratioP1;P2;durP2;ratioP2
74851;SDS011;63400;50.650;6.832;2023-02-13T00:01:02;14.65;;;5.93;;
74851;SDS011;63400;50.650;6.832;2023-02-13T00:03:27;17.38;;;5.82;;
74851;SDS011;63400;50.650;6.832;2023-02-13T00:05:53;14.10;;;6.10;;
74851;SDS011;63400;50.650;6.832;2023-02-13T00:08:19;16.83;;;6.75;;
74851;SDS011;63400;50.650;6.832;2023-02-13T00:10:45;15.40;;;6.05;;
74851;SDS011;63400;50.650;6.832;2023-02-13T00:13:11;16.80;;;6.30;;
74851;SDS011;63400;50.650;6.832;2023-02-13T00:15:37;14.15;;;6.50;;
74851;SDS011;63400;50.650;6.832;2023-02-13T00:18:03;13.27;;;6.15;;
74851;SDS011;63400;50.650;6.832;2023-02-13T00:20:29;21.30;;;6.75;;
74851;SDS011;63400;50.650;6.832;2023-02-13T00:22:54;13.60;;;5.57;;
74851;SDS011;63400;50.650;6.832;2023-02-13T00:25:20;17.80;;;6.82;;
74851;SDS011;63400;50.650;6.832;2023-02-13T00:27:45;16.70;;;5.72;;
74851;SDS011;63400;50.650;6.832;2023-02-13T00:30:11;13.32;;;6.38;;
74851;SDS011;63400;50.650;6.832;2023-02-13T00:32:37;12.98;;;6.55;;
74851;SDS011;63400;50.650;6.832;2023-02-13T00:35:03;13.05;;;5.55;;
74851;SDS011;63400;50.650;6.832;2023-02-13T00:37:29;21.15;;;7.10;;
74851;SDS011;63400;50.650;6.832;2023-02-13T00:39:54;16.52;;;6.22;;
74851;SDS011;63400;50.650;6.832;2023-02-13T00:42:20;19.40;;;6.82;;
74851;SDS011;63400;50.650;6.832;2023-02-13T00:44:50;13.23;;;5.75;;
74851;SDS011;63400;50.650;6.832;2023-02-13T00:47:16;20.23;;;7.30;;
74851;SDS011;63400;50.650;6.832;2023-02-13T00:49:43;12.98;;;5.85;;
74851;SDS011;63400;50.650;6.832;2023-02-13T00:52:08;12.80;;;5.47;;
74851;SDS011;63400;50.650;6.832;2023-02-13T00:54:34;16.27;;;5.70;;
74851;SDS011;63400;50.650;6.832;2023-02-13T00:57:00;14.65;;;5.63;;
74851;SDS011;63400;50.650;6.832;2023-02-13T00:59:25;20.67;;;8.63;;
74851;SDS011;63400;50.650;6.832;2023-02-13T01:01:51;13.48;;;6.10;;
74851;SDS011;63400;50.650;6.832;2023-02-13T01:04:16;20.65;;;7.22;;
74851;SDS011;63400;50.650;6.832;2023-02-13T01:06:42;14.05;;;6.05;;
74851;SDS011;63400;50.650;6.832;2023-02-13T01:09:07;16.25;;;7.20;;
74851;SDS011;63400;50.650;6.832;2023-02-13T01:11:33;16.98;;;7.13;;
74851;SDS011;63400;50.650;6.832;2023-02-13T01:13:59;16.48;;;6.30;;
74851;SDS011;63400;50.650;6.832;2023-02-13T01:16:24;18.48;;;7.70;;
74851;SDS011;63400;50.650;6.832;2023-02-13T01:18:50;13.40;;;5.65;;
74851;SDS011;63400;50.650;6.832;2023-02-13T01:21:17;21.02;;;7.50;;
74851;SDS011;63400;50.650;6.832;2023-02-13T01:28:40;15.43;;;6.60;;
74851;SDS011;63400;50.650;6.832;2023-02-13T01:31:06;18.50;;;7.15;;
74851;SDS011;63400;50.650;6.832;2023-02-13T01:33:31;16.55;;;7.63;;
74851;SDS011;63400;50.650;6.832;2023-02-13T01:35:57;19.67;;;8.35;;
74851;SDS011;63400;50.650;6.832;2023-02-13T01:38:24;19.38;;;7.43;;
74851;SDS011;63400;50.650;6.832;2023-02-13T01:40:51;14.73;;;6.47;;
74851;SDS011;63400;50.650;6.832;2023-02-13T01:43:18;25.88;;;8.88;;
74851;SDS011;63400;50.650;6.832;2023-02-13T01:45:47;17.75;;;6.53;;
74851;SDS011;63400;50.650;6.832;2023-02-13T01:48:18;23.70;;;8.52;;
74851;SDS011;63400;50.650;6.832;2023-02-13T01:50:46;15.48;;;7.22;;
74851;SDS011;63400;50.650;6.832;2023-02-13T01:53:19;18.27;;;7.65;;
74851;SDS011;63400;50.650;6.832;2023-02-13T01:58:48;14.48;;;6.15;;
74851;SDS011;63400;50.650;6.832;2023-02-13T02:01:17;18.77;;;7.38;;
74851;SDS011;63400;50.650;6.832;2023-02-13T02:04:27;17.92;;;7.00;;
74851;SDS011;63400;50.650;6.832;2023-02-13T02:06:47;17.40;;;6.63;;
74851;SDS011;63400;50.650;6.832;2023-02-13T02:09:17;19.92;;;8.02;;
74851;SDS011;63400;50.650;6.832;2023-02-13T02:12:02;19.02;;;7.07;;
74851;SDS011;63400;50.650;6.832;2023-02-13T02:14:31;20.67;;;7.50;;
74851;SDS011;63400;50.650;6.832;2023-02-13T02:16:58;19.08;;;7.57;;
74851;SDS011;63400;50.650;6.832;2023-02-13T02:24:34;20.60;;;8.25;;
74851;SDS011;63400;50.650;6.832;2023-02-13T02:37:41;17.05;;;6.88;;
74851;SDS011;63400;50.650;6.832;2023-02-13T02:48:26;20.27;;;8.02;;
74851;SDS011;63400;50.650;6.832;2023-02-13T02:52:15;20.52;;;7.50;;
74851;SDS011;63400;50.650;6.832;2023-02-13T02:57:33;18.58;;;6.15;;
74851;SDS011;63400;50.650;6.832;2023-02-13T03:00:22;19.40;;;7.30;;
74851;SDS011;63400;50.650;6.832;2023-02-13T03:05:54;18.75;;;6.78;;
74851;SDS011;63400;50.650;6.832;2023-02-13T03:08:36;17.15;;;6.35;;
74851;SDS011;63400;50.650;6.832;2023-02-13T03:11:21;18.92;;;7.97;;
74851;SDS011;63400;50.650;6.832;2023-02-13T03:14:05;18.42;;;7.30;;
74851;SDS011;63400;50.650;6.832;2023-02-13T03:16:31;19.77;;;6.75;;
74851;SDS011;63400;50.650;6.832;2023-02-13T03:19:27;17.20;;;7.07;;
74851;SDS011;63400;50.650;6.832;2023-02-13T03:25:29;21.23;;;7.45;;
74851;SDS011;63400;50.650;6.832;2023-02-13T03:28:16;16.73;;;6.78;;
74851;SDS011;63400;50.650;6.832;2023-02-13T03:31:17;17.88;;;6.18;;
74851;SDS011;63400;50.650;6.832;2023-02-13T03:34:32;16.75;;;6.65;;
74851;SDS011;63400;50.650;6.832;2023-02-13T03:36:42;21.33;;;6.38;;
74851;SDS011;63400;50.650;6.832;2023-02-13T03:42:00;14.95;;;6.35;;
74851;SDS011;63400;50.650;6.832;2023-02-13T03:44:32;19.27;;;6.75;;
74851;SDS011;63400;50.650;6.832;2023-02-13T03:47:03;15.77;;;5.90;;
74851;SDS011;63400;50.650;6.832;2023-02-13T03:49:37;15.20;;;6.40;;
74851;SDS011;63400;50.650;6.832;2023-02-13T03:52:25;14.73;;;5.80;;
74851;SDS011;63400;50.650;6.832;2023-02-13T03:54:56;19.27;;;7.55;;
74851;SDS011;63400;50.650;6.832;2023-02-13T03:57:42;15.85;;;6.35;;
74851;SDS011;63400;50.650;6.832;2023-02-13T04:00:28;22.23;;;7.60;;
74851;SDS011;63400;50.650;6.832;2023-02-13T04:03:00;17.83;;;7.15;;
74851;SDS011;63400;50.650;6.832;2023-02-13T04:05:35;17.27;;;6.35;;
74851;SDS011;63400;50.650;6.832;2023-02-13T04:08:04;16.70;;;6.97;;
74851;SDS011;63400;50.650;6.832;2023-02-13T04:10:30;18.55;;;7.03;;
74851;SDS011;63400;50.650;6.832;2023-02-13T04:18:17;17.50;;;7.30;;
74851;SDS011;63400;50.650;6.832;2023-02-13T04:20:45;16.25;;;5.90;;
74851;SDS011;63400;50.650;6.832;2023-02-13T04:23:11;17.35;;;6.57;;
74851;SDS011;63400;50.650;6.832;2023-02-13T04:25:37;15.93;;;5.93;;
74851;SDS011;63400;50.650;6.832;2023-02-13T04:28:04;17.02;;;7.07;;
74851;SDS011;63400;50.650;6.832;2023-02-13T04:30:30;20.20;;;7.80;;
74851;SDS011;63400;50.650;6.832;2023-02-13T04:32:55;16.20;;;6.45;;
74851;SDS011;63400;50.650;6.832;2023-02-13T04:35:21;20.27;;;6.85;;
74851;SDS011;63400;50.650;6.832;2023-02-13T04:37:46;16.17;;;6.70;;
74851;SDS011;63400;50.650;6.832;2023-02-13T04:40:12;18.08;;;7.00;;
74851;SDS011;63400;50.650;6.832;2023-02-13T04:42:37;19.45;;;6.20;;
74851;SDS011;63400;50.650;6.832;2023-02-13T04:45:03;14.80;;;6.25;;
74851;SDS011;63400;50.650;6.832;2023-02-13T04:47:29;19.45;;;6.50;;
74851;SDS011;63400;50.650;6.832;2023-02-13T04:49:54;15.82;;;5.38;;
74851;SDS011;63400;50.650;6.832;2023-02-13T04:52:20;19.17;;;7.40;;
74851;SDS011;63400;50.650;6.832;2023-02-13T04:54:45;17.80;;;7.18;;
74851;SDS011;63400;50.650;6.832;2023-02-13T04:57:10;14.30;;;6.15;;
74851;SDS011;63400;50.650;6.832;2023-02-13T04:59:36;14.93;;;4.30;;
74851;SDS011;63400;50.650;6.832;2023-02-13T05:02:01;15.15;;;6.38;;
74851;SDS011;63400;50.650;6.832;2023-02-13T05:04:27;20.63;;;6.75;;
74851;SDS011;63400;50.650;6.832;2023-02-13T05:06:53;15.98;;;5.80;;
74851;SDS011;63400;50.650;6.832;2023-02-13T05:09:18;17.10;;;6.50;;
74851;SDS011;63400;50.650;6.832;2023-02-13T05:11:44;15.63;;;7.38;;
74851;SDS011;63400;50.650;6.832;2023-02-13T05:14:09;16.52;;;6.70;;
74851;SDS011;63400;50.650;6.832;2023-02-13T05:16:35;15.88;;;5.55;;
74851;SDS011;63400;50.650;6.832;2023-02-13T05:19:01;13.75;;;6.28;;
74851;SDS011;63400;50.650;6.832;2023-02-13T05:21:26;21.55;;;7.22;;
74851;SDS011;63400;50.650;6.832;2023-02-13T05:24:11;13.25;;;5.70;;
74851;SDS011;63400;50.650;6.832;2023-02-13T05:26:36;14.82;;;5.82;;
74851;SDS011;63400;50.650;6.832;2023-02-13T05:29:02;14.32;;;5.78;;
74851;SDS011;63400;50.650;6.832;2023-02-13T05:31:53;16.90;;;5.70;;
74851;SDS011;63400;50.650;6.832;2023-02-13T05:34:20;25.17;;;8.80;;
74851;SDS011;63400;50.650;6.832;2023-02-13T05:36:47;14.85;;;5.50;;
74851;SDS011;63400;50.650;6.832;2023-02-13T05:39:14;19.58;;;6.82;;
74851;SDS011;63400;50.650;6.832;2023-02-13T05:44:11;15.52;;;6.47;;
74851;SDS011;63400;50.650;6.832;2023-02-13T05:46:38;17.30;;;6.47;;
74851;SDS011;63400;50.650;6.832;2023-02-13T05:49:13;14.80;;;5.82;;
74851;SDS011;63400;50.650;6.832;2023-02-13T05:51:39;19.20;;;6.53;;
74851;SDS011;63400;50.650;6.832;2023-02-13T05:54:06;15.15;;;6.25;;
74851;SDS011;63400;50.650;6.832;2023-02-13T05:56:32;17.00;;;6.30;;
74851;SDS011;63400;50.650;6.832;2023-02-13T05:58:58;16.88;;;7.30;;
74851;SDS011;63400;50.650;6.832;2023-02-13T06:01:23;21.98;;;9.73;;
74851;SDS011;63400;50.650;6.832;2023-02-13T06:03:49;20.38;;;9.98;;
74851;SDS011;63400;50.650;6.832;2023-02-13T06:06:15;14.02;;;5.22;;
74851;SDS011;63400;50.650;6.832;2023-02-13T06:08:41;18.80;;;7.70;;
74851;SDS011;63400;50.650;6.832;2023-02-13T06:11:07;16.90;;;7.07;;
74851;SDS011;63400;50.650;6.832;2023-02-13T06:13:32;15.98;;;6.70;;
74851;SDS011;63400;50.650;6.832;2023-02-13T06:15:58;15.80;;;6.95;;
74851;SDS011;63400;50.650;6.832;2023-02-13T06:18:23;18.48;;;6.75;;
74851;SDS011;63400;50.650;6.832;2023-02-13T06:20:49;14.43;;;5.97;;
74851;SDS011;63400;50.650;6.832;2023-02-13T06:23:14;16.13;;;6.57;;
74851;SDS011;63400;50.650;6.832;2023-02-13T06:25:42;16.17;;;6.07;;
74851;SDS011;63400;50.650;6.832;2023-02-13T06:30:36;12.95;;;6.30;;
74851;SDS011;63400;50.650;6.832;2023-02-13T06:33:02;19.63;;;8.95;;
74851;SDS011;63400;50.650;6.832;2023-02-13T06:35:27;23.15;;;8.10;;
74851;SDS011;63400;50.650;6.832;2023-02-13T06:37:53;14.32;;;6.43;;
74851;SDS011;63400;50.650;6.832;2023-02-13T06:40:18;17.85;;;5.40;;
74851;SDS011;63400;50.650;6.832;2023-02-13T06:42:44;15.65;;;6.45;;
74851;SDS011;63400;50.650;6.832;2023-02-13T06:45:11;13.38;;;5.78;;
74851;SDS011;63400;50.650;6.832;2023-02-13T06:47:43;14.05;;;5.18;;
74851;SDS011;63400;50.650;6.832;2023-02-13T06:50:12;14.55;;;5.53;;
74851;SDS011;63400;50.650;6.832;2023-02-13T06:52:38;14.40;;;6.38;;
74851;SDS011;63400;50.650;6.832;2023-02-13T06:55:04;23.65;;;13.57;;
74851;SDS011;63400;50.650;6.832;2023-02-13T06:57:30;18.05;;;7.30;;
74851;SDS011;63400;50.650;6.832;2023-02-13T06:59:59;18.90;;;6.72;;
74851;SDS011;63400;50.650;6.832;2023-02-13T07:02:25;20.55;;;6.93;;
74851;SDS011;63400;50.650;6.832;2023-02-13T07:04:50;17.98;;;7.20;;
74851;SDS011;63400;50.650;6.832;2023-02-13T07:07:15;19.52;;;7.13;;
74851;SDS011;63400;50.650;6.832;2023-02-13T07:09:41;18.23;;;6.50;;
74851;SDS011;63400;50.650;6.832;2023-02-13T07:12:06;18.02;;;6.30;;
74851;SDS011;63400;50.650;6.832;2023-02-13T07:14:32;16.20;;;6.65;;
74851;SDS011;63400;50.650;6.832;2023-02-13T07:16:58;20.00;;;8.48;;
74851;SDS011;63400;50.650;6.832;2023-02-13T07:19:25;20.60;;;7.07;;
74851;SDS011;63400;50.650;6.832;2023-02-13T07:21:53;16.13;;;6.90;;
74851;SDS011;63400;50.650;6.832;2023-02-13T07:24:19;24.73;;;7.88;;
74851;SDS011;63400;50.650;6.832;2023-02-13T07:26:45;24.17;;;10.27;;
74851;SDS011;63400;50.650;6.832;2023-02-13T07:29:10;16.75;;;7.53;;
74851;SDS011;63400;50.650;6.832;2023-02-13T07:31:35;12.90;;;5.53;;
74851;SDS011;63400;50.650;6.832;2023-02-13T07:34:01;13.98;;;5.47;;
74851;SDS011;63400;50.650;6.832;2023-02-13T07:36:27;16.83;;;4.85;;
74851;SDS011;63400;50.650;6.832;2023-02-13T07:38:52;12.38;;;5.55;;
74851;SDS011;63400;50.650;6.832;2023-02-13T07:41:18;17.65;;;6.10;;
74851;SDS011;63400;50.650;6.832;2023-02-13T07:43:44;12.20;;;5.53;;
74851;SDS011;63400;50.650;6.832;2023-02-13T07:46:09;8.45;;;4.10;;
74851;SDS011;63400;50.650;6.832;2023-02-13T07:48:35;11.50;;;5.15;;
74851;SDS011;63400;50.650;6.832;2023-02-13T07:51:01;13.77;;;5.95;;
74851;SDS011;63400;50.650;6.832;2023-02-13T07:55:53;13.73;;;7.90;;
74851;SDS011;63400;50.650;6.832;2023-02-13T07:58:19;16.73;;;6.80;;
74851;SDS011;63400;50.650;6.832;2023-02-13T08:00:44;11.00;;;5.97;;
74851;SDS011;63400;50.650;6.832;2023-02-13T08:03:09;10.02;;;6.00;;
74851;SDS011;63400;50.650;6.832;2023-02-13T08:05:35;10.35;;;5.45;;
74851;SDS011;63400;50.650;6.832;2023-02-13T08:08:01;7.95;;;4.60;;
74851;SDS011;63400;50.650;6.832;2023-02-13T08:10:26;12.80;;;6.28;;
74851;SDS011;63400;50.650;6.832;2023-02-13T08:13:11;14.38;;;5.68;;
74851;SDS011;63400;50.650;6.832;2023-02-13T08:15:37;9.45;;;5.72;;
74851;SDS011;63400;50.650;6.832;2023-02-13T08:18:03;10.05;;;5.05;;
74851;SDS011;63400;50.650;6.832;2023-02-13T08:20:29;14.73;;;6.05;;
74851;SDS011;63400;50.650;6.832;2023-02-13T08:23:04;10.85;;;5.38;;
74851;SDS011;63400;50.650;6.832;2023-02-13T08:25:31;15.05;;;7.05;;
74851;SDS011;63400;50.650;6.832;2023-02-13T08:27:57;9.13;;;5.20;;
74851;SDS011;63400;50.650;6.832;2023-02-13T08:30:23;14.57;;;6.70;;
74851;SDS011;63400;50.650;6.832;2023-02-13T08:32:49;9.48;;;5.15;;
74851;SDS011;63400;50.650;6.832;2023-02-13T08:35:14;10.40;;;5.05;;
74851;SDS011;63400;50.650;6.832;2023-02-13T08:37:40;10.13;;;4.88;;
74851;SDS011;63400;50.650;6.832;2023-02-13T08:40:06;9.77;;;5.70;;
74851;SDS011;63400;50.650;6.832;2023-02-13T08:42:34;9.57;;;4.95;;
74851;SDS011;63400;50.650;6.832;2023-02-13T08:45:00;9.68;;;5.20;;
74851;SDS011;63400;50.650;6.832;2023-02-13T08:47:26;12.05;;;5.68;;
74851;SDS011;63400;50.650;6.832;2023-02-13T08:49:51;8.80;;;4.97;;
74851;SDS011;63400;50.650;6.832;2023-02-13T08:52:17;14.68;;;5.93;;
74851;SDS011;63400;50.650;6.832;2023-02-13T08:54:42;9.68;;;5.32;;
74851;SDS011;63400;50.650;6.832;2023-02-13T08:57:08;9.07;;;5.47;;
74851;SDS011;63400;50.650;6.832;2023-02-13T08:59:33;8.85;;;4.70;;
74851;SDS011;63400;50.650;6.832;2023-02-13T09:02:00;7.95;;;4.55;;
74851;SDS011;63400;50.650;6.832;2023-02-13T09:04:29;12.43;;;5.10;;
74851;SDS011;63400;50.650;6.832;2023-02-13T09:06:55;8.13;;;4.88;;
74851;SDS011;63400;50.650;6.832;2023-02-13T09:09:20;11.88;;;5.78;;
74851;SDS011;63400;50.650;6.832;2023-02-13T09:11:46;9.25;;;5.20;;
74851;SDS011;63400;50.650;6.832;2023-02-13T09:14:11;9.15;;;5.15;;
74851;SDS011;63400;50.650;6.832;2023-02-13T09:16:37;9.50;;;4.55;;
74851;SDS011;63400;50.650;6.832;2023-02-13T09:19:02;8.68;;;5.25;;
74851;SDS011;63400;50.650;6.832;2023-02-13T09:21:28;10.50;;;5.40;;
74851;SDS011;63400;50.650;6.832;2023-02-13T09:23:55;9.38;;;4.78;;
74851;SDS011;63400;50.650;6.832;2023-02-13T09:26:20;10.88;;;5.32;;
74851;SDS011;63400;50.650;6.832;2023-02-13T09:28:46;8.70;;;4.93;;
74851;SDS011;63400;50.650;6.832;2023-02-13T09:31:16;8.75;;;5.05;;
74851;SDS011;63400;50.650;6.832;2023-02-13T09:33:43;8.93;;;5.15;;
74851;SDS011;63400;50.650;6.832;2023-02-13T09:36:11;7.93;;;4.75;;
74851;SDS011;63400;50.650;6.832;2023-02-13T09:38:39;9.00;;;5.00;;
74851;SDS011;63400;50.650;6.832;2023-02-13T09:46:32;11.63;;;5.35;;
74851;SDS011;63400;50.650;6.832;2023-02-13T09:49:07;6.75;;;3.90;;
74851;SDS011;63400;50.650;6.832;2023-02-13T09:51:37;7.72;;;4.15;;
74851;SDS011;63400;50.650;6.832;2023-02-13T09:54:04;8.55;;;4.85;;
74851;SDS011;63400;50.650;6.832;2023-02-13T09:56:36;10.88;;;4.65;;
74851;SDS011;63400;50.650;6.832;2023-02-13T09:59:26;8.32;;;4.05;;
74851;SDS011;63400;50.650;6.832;2023-02-13T10:05:09;8.48;;;4.70;;
74851;SDS011;63400;50.650;6.832;2023-02-13T10:07:57;8.27;;;5.10;;
74851;SDS011;63400;50.650;6.832;2023-02-13T10:10:33;12.68;;;5.80;;
74851;SDS011;63400;50.650;6.832;2023-02-13T10:13:43;7.95;;;4.25;;
74851;SDS011;63400;50.650;6.832;2023-02-13T10:21:14;9.77;;;4.78;;
74851;SDS011;63400;50.650;6.832;2023-02-13T10:26:43;7.43;;;4.90;;
74851;SDS011;63400;50.650;6.832;2023-02-13T10:29:21;7.32;;;4.63;;
74851;SDS011;63400;50.650;6.832;2023-02-13T10:32:11;7.30;;;4.75;;
74851;SDS011;63400;50.650;6.832;2023-02-13T10:34:43;11.30;;;5.35;;
74851;SDS011;63400;50.650;6.832;2023-02-13T10:37:17;11.00;;;5.50;;
74851;SDS011;63400;50.650;6.832;2023-02-13T10:39:45;9.07;;;5.80;;
74851;SDS011;63400;50.650;6.832;2023-02-13T10:45:10;7.45;;;4.95;;
74851;SDS011;63400;50.650;6.832;2023-02-13T12:18:20;14.43;;;6.50;;
74851;SDS011;63400;50.650;6.832;2023-02-13T12:42:02;14.13;;;6.63;;
74851;SDS011;63400;50.650;6.832;2023-02-13T12:44:53;12.68;;;5.57;;
74851;SDS011;63400;50.650;6.832;2023-02-13T12:51:49;16.42;;;8.20;;
74851;SDS011;63400;50.650;6.832;2023-02-13T13:00:36;13.23;;;6.10;;
74851;SDS011;63400;50.650;6.832;2023-02-13T13:08:12;14.40;;;6.80;;
74851;SDS011;63400;50.650;6.832;2023-02-13T13:14:23;15.07;;;6.32;;
74851;SDS011;63400;50.650;6.832;2023-02-13T13:26:47;16.27;;;6.80;;
74851;SDS011;63400;50.650;6.832;2023-02-13T13:29:26;16.80;;;6.82;;
74851;SDS011;63400;50.650;6.832;2023-02-13T13:32:06;13.70;;;5.85;;
74851;SDS011;63400;50.650;6.832;2023-02-13T13:34:49;25.25;;;7.50;;
74851;SDS011;63400;50.650;6.832;2023-02-13T13:41:14;22.60;;;7.28;;
74851;SDS011;63400;50.650;6.832;2023-02-13T13:50:25;17.02;;;5.82;;
74851;SDS011;63400;50.650;6.832;2023-02-13T13:53:17;12.32;;;5.63;;
74851;SDS011;63400;50.650;6.832;2023-02-13T13:56:00;17.35;;;6.38;;
74851;SDS011;63400;50.650;6.832;2023-02-13T13:58:35;13.35;;;5.45;;
74851;SDS011;63400;50.650;6.832;2023-02-13T14:01:23;15.43;;;6.40;;
74851;SDS011;63400;50.650;6.832;2023-02-13T14:04:02;12.63;;;5.65;;
74851;SDS011;63400;50.650;6.832;2023-02-13T14:07:14;16.35;;;6.05;;
74851;SDS011;63400;50.650;6.832;2023-02-13T14:09:55;11.73;;;5.15;;
74851;SDS011;63400;50.650;6.832;2023-02-13T14:18:22;10.45;;;4.55;;
74851;SDS011;63400;50.650;6.832;2023-02-13T14:21:01;11.65;;;4.63;;
74851;SDS011;63400;50.650;6.832;2023-02-13T14:23:37;9.60;;;4.80;;
74851;SDS011;63400;50.650;6.832;2023-02-13T14:26:37;15.73;;;5.57;;
74851;SDS011;63400;50.650;6.832;2023-02-13T14:32:42;13.45;;;5.25;;
74851;SDS011;63400;50.650;6.832;2023-02-13T14:36:08;13.05;;;4.68;;
74851;SDS011;63400;50.650;6.832;2023-02-13T14:39:47;11.15;;;4.13;;
74851;SDS011;63400;50.650;6.832;2023-02-13T14:45:35;13.77;;;4.85;;
74851;SDS011;63400;50.650;6.832;2023-02-13T14:49:45;10.90;;;4.75;;
74851;SDS011;63400;50.650;6.832;2023-02-13T14:52:56;12.75;;;4.13;;
74851;SDS011;63400;50.650;6.832;2023-02-13T14:56:33;10.68;;;4.22;;
74851;SDS011;63400;50.650;6.832;2023-02-13T15:03:01;11.27;;;4.45;;
74851;SDS011;63400;50.650;6.832;2023-02-13T15:05:32;9.32;;;4.30;;
74851;SDS011;63400;50.650;6.832;2023-02-13T15:08:11;9.82;;;4.05;;
74851;SDS011;63400;50.650;6.832;2023-02-13T15:13:16;10.38;;;4.95;;
74851;SDS011;63400;50.650;6.832;2023-02-13T15:15:46;18.92;;;6.00;;
74851;SDS011;63400;50.650;6.832;2023-02-13T15:18:19;14.02;;;4.00;;
74851;SDS011;63400;50.650;6.832;2023-02-13T15:20:48;13.70;;;4.65;;
74851;SDS011;63400;50.650;6.832;2023-02-13T15:23:18;13.23;;;4.60;;
74851;SDS011;63400;50.650;6.832;2023-02-13T15:25:46;16.40;;;4.55;;
74851;SDS011;63400;50.650;6.832;2023-02-13T15:28:25;9.07;;;3.65;;
74851;SDS011;63400;50.650;6.832;2023-02-13T15:31:36;13.27;;;3.80;;
74851;SDS011;63400;50.650;6.832;2023-02-13T15:34:34;7.68;;;2.97;;
74851;SDS011;63400;50.650;6.832;2023-02-13T15:37:17;9.82;;;4.00;;
74851;SDS011;63400;50.650;6.832;2023-02-13T15:39:53;11.20;;;4.13;;
74851;SDS011;63400;50.650;6.832;2023-02-13T15:42:19;12.93;;;4.38;;
74851;SDS011;63400;50.650;6.832;2023-02-13T15:44:48;12.77;;;4.00;;
74851;SDS011;63400;50.650;6.832;2023-02-13T15:47:36;11.43;;;3.78;;
74851;SDS011;63400;50.650;6.832;2023-02-13T15:50:02;9.30;;;3.60;;
74851;SDS011;63400;50.650;6.832;2023-02-13T15:52:32;12.60;;;4.75;;
74851;SDS011;63400;50.650;6.832;2023-02-13T15:55:01;9.00;;;4.05;;
74851;SDS011;63400;50.650;6.832;2023-02-13T15:57:27;10.45;;;3.67;;
74851;SDS011;63400;50.650;6.832;2023-02-13T15:59:54;15.25;;;4.82;;
74851;SDS011;63400;50.650;6.832;2023-02-13T16:02:21;7.90;;;2.88;;
74851;SDS011;63400;50.650;6.832;2023-02-13T16:04:51;17.55;;;4.70;;
74851;SDS011;63400;50.650;6.832;2023-02-13T16:07:17;8.23;;;2.75;;
74851;SDS011;63400;50.650;6.832;2023-02-13T16:09:44;17.85;;;5.20;;
74851;SDS011;63400;50.650;6.832;2023-02-13T16:12:16;12.43;;;3.95;;
74851;SDS011;63400;50.650;6.832;2023-02-13T16:14:46;16.42;;;4.40;;
74851;SDS011;63400;50.650;6.832;2023-02-13T16:17:15;8.07;;;2.92;;
74851;SDS011;63400;50.650;6.832;2023-02-13T16:19:53;17.40;;;4.85;;
74851;SDS011;63400;50.650;6.832;2023-02-13T16:22:29;9.95;;;3.53;;
74851;SDS011;63400;50.650;6.832;2023-02-13T16:25:01;7.25;;;2.63;;
74851;SDS011;63400;50.650;6.832;2023-02-13T16:27:36;10.35;;;3.35;;
74851;SDS011;63400;50.650;6.832;2023-02-13T16:30:15;10.60;;;3.25;;
74851;SDS011;63400;50.650;6.832;2023-02-13T16:32:42;14.25;;;3.85;;
74851;SDS011;63400;50.650;6.832;2023-02-13T16:35:28;7.32;;;2.70;;
74851;SDS011;63400;50.650;6.832;2023-02-13T16:41:41;12.63;;;3.40;;
74851;SDS011;63400;50.650;6.832;2023-02-13T16:48:26;10.25;;;2.80;;
74851;SDS011;63400;50.650;6.832;2023-02-13T16:51:15;10.60;;;4.90;;
74851;SDS011;63400;50.650;6.832;2023-02-13T16:58:02;9.80;;;2.53;;
74851;SDS011;63400;50.650;6.832;2023-02-13T17:00:56;9.55;;;2.45;;
74851;SDS011;63400;50.650;6.832;2023-02-13T17:03:44;10.07;;;2.92;;
74851;SDS011;63400;50.650;6.832;2023-02-13T17:06:36;12.25;;;5.15;;
74851;SDS011;63400;50.650;6.832;2023-02-13T17:09:03;9.43;;;3.22;;
74851;SDS011;63400;50.650;6.832;2023-02-13T17:11:28;11.10;;;3.38;;
74851;SDS011;63400;50.650;6.832;2023-02-13T17:13:54;9.32;;;4.43;;
74851;SDS011;63400;50.650;6.832;2023-02-13T17:16:20;8.80;;;3.55;;
74851;SDS011;63400;50.650;6.832;2023-02-13T17:18:46;12.38;;;3.15;;
74851;SDS011;63400;50.650;6.832;2023-02-13T17:21:11;7.07;;;2.50;;
74851;SDS011;63400;50.650;6.832;2023-02-13T17:23:37;14.02;;;3.60;;
74851;SDS011;63400;50.650;6.832;2023-02-13T17:26:04;6.82;;;2.65;;
74851;SDS011;63400;50.650;6.832;2023-02-13T17:28:29;8.02;;;2.95;;
74851;SDS011;63400;50.650;6.832;2023-02-13T17:30:56;8.35;;;2.95;;
74851;SDS011;63400;50.650;6.832;2023-02-13T17:33:24;9.07;;;2.83;;
74851;SDS011;63400;50.650;6.832;2023-02-13T17:35:54;9.00;;;3.45;;
74851;SDS011;63400;50.650;6.832;2023-02-13T17:38:20;9.20;;;3.20;;
74851;SDS011;63400;50.650;6.832;2023-02-13T17:40:46;16.15;;;4.35;;
74851;SDS011;63400;50.650;6.832;2023-02-13T17:43:13;6.72;;;2.42;;
74851;SDS011;63400;50.650;6.832;2023-02-13T17:48:05;13.50;;;4.30;;
74851;SDS011;63400;50.650;6.832;2023-02-13T17:50:31;13.93;;;5.00;;
74851;SDS011;63400;50.650;6.832;2023-02-13T17:52:57;22.40;;;7.22;;
74851;SDS011;63400;50.650;6.832;2023-02-13T17:55:27;11.98;;;5.30;;
74851;SDS011;63400;50.650;6.832;2023-02-13T18:01:30;11.20;;;4.05;;
74851;SDS011;63400;50.650;6.832;2023-02-13T18:03:55;8.00;;;3.17;;
74851;SDS011;63400;50.650;6.832;2023-02-13T18:06:21;7.95;;;2.60;;
74851;SDS011;63400;50.650;6.832;2023-02-13T18:08:46;11.85;;;4.05;;
74851;SDS011;63400;50.650;6.832;2023-02-13T18:11:11;7.88;;;3.42;;
74851;SDS011;63400;50.650;6.832;2023-02-13T18:13:39;12.43;;;3.65;;
74851;SDS011;63400;50.650;6.832;2023-02-13T18:16:11;7.78;;;2.53;;
74851;SDS011;63400;50.650;6.832;2023-02-13T18:18:37;13.18;;;3.97;;
74851;SDS011;63400;50.650;6.832;2023-02-13T18:21:02;10.68;;;2.88;;
74851;SDS011;63400;50.650;6.832;2023-02-13T18:23:28;6.82;;;2.50;;
74851;SDS011;63400;50.650;6.832;2023-02-13T18:26:01;9.90;;;4.00;;
74851;SDS011;63400;50.650;6.832;2023-02-13T18:28:28;9.45;;;2.85;;
74851;SDS011;63400;50.650;6.832;2023-02-13T18:30:53;7.60;;;2.58;;
74851;SDS011;63400;50.650;6.832;2023-02-13T18:33:19;7.78;;;3.15;;
74851;SDS011;63400;50.650;6.832;2023-02-13T18:35:44;15.35;;;4.53;;
74851;SDS011;63400;50.650;6.832;2023-02-13T18:38:09;8.15;;;3.40;;
74851;SDS011;63400;50.650;6.832;2023-02-13T18:40:35;11.63;;;3.72;;
74851;SDS011;63400;50.650;6.832;2023-02-13T18:43:00;6.90;;;3.00;;
74851;SDS011;63400;50.650;6.832;2023-02-13T18:45:26;7.93;;;2.85;;
74851;SDS011;63400;50.650;6.832;2023-02-13T18:47:51;16.20;;;4.25;;
74851;SDS011;63400;50.650;6.832;2023-02-13T18:50:17;9.73;;;3.63;;
74851;SDS011;63400;50.650;6.832;2023-02-13T19:03:02;10.18;;;4.47;;
74851;SDS011;63400;50.650;6.832;2023-02-13T19:05:28;12.25;;;5.20;;
74851;SDS011;63400;50.650;6.832;2023-02-13T19:07:53;10.60;;;3.90;;
74851;SDS011;63400;50.650;6.832;2023-02-13T19:10:18;7.72;;;3.78;;
74851;SDS011;63400;50.650;6.832;2023-02-13T19:12:44;28.52;;;7.70;;
74851;SDS011;63400;50.650;6.832;2023-02-13T19:15:09;9.07;;;4.47;;
74851;SDS011;63400;50.650;6.832;2023-02-13T19:17:35;11.68;;;5.00;;
74851;SDS011;63400;50.650;6.832;2023-02-13T19:20:02;10.95;;;4.03;;
74851;SDS011;63400;50.650;6.832;2023-02-13T19:22:28;14.32;;;5.50;;
74851;SDS011;63400;50.650;6.832;2023-02-13T19:24:54;14.05;;;7.18;;
74851;SDS011;63400;50.650;6.832;2023-02-13T19:27:19;15.38;;;7.22;;
74851;SDS011;63400;50.650;6.832;2023-02-13T19:29:45;19.30;;;7.55;;
74851;SDS011;63400;50.650;6.832;2023-02-13T19:32:11;12.07;;;6.07;;
74851;SDS011;63400;50.650;6.832;2023-02-13T19:34:36;21.30;;;10.63;;
74851;SDS011;63400;50.650;6.832;2023-02-13T19:37:01;8.85;;;4.55;;